Time;durP1;ratioP1;P1;durP2;ratioP2;P2;SDS_P1;SDS_P2;PMS_P1;PMS_P2;Temp;Humidity;BMP_temperature;BMP_pressure;BME280_temperature;BME280_humidity;BME280_pressure;Samples;Min_cycle;Max_cycle;Signal;HPM_P1;HPM_P2
2021/11/12 00:13:17;;;;;;;62.17;22.42;;;;;;;7.62;100.00;102056.84;5066956;28;20040;-77
2021/11/12 00:15:48;;;;;;;51.70;22.50;;;;;;;7.55;100.00;102047.63;5067009;28;20036;-77
2021/11/12 00:18:13;;;;;;;59.05;23.40;;;;;;;7.54;100.00;102054.75;5066840;28;20524;-77
2021/11/12 00:20:39;;;;;;;64.72;24.55;;;;;;;7.51;100.00;102056.75;5066720;28;20044;-77
2021/11/12 00:23:04;;;;;;;63.95;25.00;;;;;;;7.52;100.00;102069.94;5066856;28;20465;-77
2021/11/12 00:25:30;;;;;;;78.67;27.17;;;;;;;7.51;100.00;102070.88;5066273;28;20413;-77
2021/11/12 00:27:55;;;;;;;78.13;28.53;;;;;;;7.54;100.00;102078.66;5050015;28;20032;-77
2021/11/12 00:40:43;;;;;;;74.93;28.45;;;;;;;7.73;100.00;102104.75;5066356;28;20134;-77
2021/11/12 00:43:15;;;;;;;73.53;29.77;;;;;;;7.64;100.00;102080.66;5066172;28;20123;-77
2021/11/12 00:45:56;;;;;;;83.28;30.70;;;;;;;7.75;100.00;102094.00;5066492;28;20032;-77
2021/11/12 00:48:25;;;;;;;74.18;29.35;;;;;;;7.74;100.00;102081.69;5067274;28;20067;-78
2021/11/12 00:51:09;;;;;;;90.78;29.85;;;;;;;7.75;100.00;102073.59;5049647;28;20047;-78
2021/11/12 00:53:54;;;;;;;80.15;28.85;;;;;;;7.74;100.00;102063.91;5066148;28;20040;-76
2021/11/12 00:56:22;;;;;;;74.70;30.27;;;;;;;7.67;100.00;102040.56;5066517;28;20513;-77
2021/11/12 00:58:48;;;;;;;79.82;29.88;;;;;;;7.64;100.00;102035.47;5066096;28;20036;-77
2021/11/12 01:01:13;;;;;;;80.50;30.38;;;;;;;7.71;100.00;102047.34;5049743;28;20028;-77
2021/11/12 01:03:39;;;;;;;78.57;29.48;;;;;;;7.71;100.00;102042.88;5065892;28;20028;-77
2021/11/12 01:06:05;;;;;;;81.47;31.90;;;;;;;7.73;100.00;102040.13;5049822;28;20113;-77
2021/11/12 01:08:31;;;;;;;83.63;32.28;;;;;;;7.68;100.00;102034.28;5049415;28;20051;-78
2021/11/12 01:10:57;;;;;;;80.30;30.23;;;;;;;7.58;100.00;102013.69;5067268;28;20032;-77
2021/11/12 01:13:24;;;;;;;75.13;30.08;;;;;;;7.66;100.00;102025.59;5065446;28;20025;-77
2021/11/12 01:15:50;;;;;;;85.15;31.90;;;;;;;7.64;100.00;102009.75;5066241;28;20560;-77
2021/11/12 01:18:15;;;;;;;80.03;31.15;;;;;;;7.70;100.00;102014.63;5066222;28;20028;-77
2021/11/12 01:20:41;;;;;;;80.10;32.13;;;;;;;7.66;100.00;102004.31;5066865;28;20478;-77
2021/11/12 01:23:07;;;;;;;73.68;29.00;;;;;;;7.66;100.00;101993.69;5066082;28;20410;-77
2021/11/12 01:25:33;;;;;;;77.35;31.80;;;;;;;7.69;100.00;101996.94;5065239;28;20562;-77
2021/11/12 01:27:58;;;;;;;73.43;30.10;;;;;;;7.67;100.00;101992.72;5066294;28;20046;-77
2021/11/12 01:30:24;;;;;;;77.95;30.33;;;;;;;7.71;100.00;102000.34;5066940;28;20082;-77
2021/11/12 01:32:50;;;;;;;82.20;29.77;;;;;;;7.74;100.00;102004.59;5066027;28;20048;-77
2021/11/12 01:35:18;;;;;;;79.60;29.48;;;;;;;7.88;100.00;102000.91;5066588;28;20037;-77
2021/11/12 01:37:45;;;;;;;79.45;31.35;;;;;;;7.84;100.00;101994.97;5049396;28;20082;-77
2021/11/12 01:40:20;;;;;;;88.45;31.65;;;;;;;7.82;100.00;101987.13;5065789;28;20528;-77
2021/11/12 01:43:15;;;;;;;77.45;31.77;;;;;;;7.91;100.00;101996.19;5065869;28;20036;-78
2021/11/12 01:48:26;;;;;;;88.85;31.17;;;;;;;7.90;100.00;101957.28;5065920;28;20294;-78
2021/11/12 01:53:40;;;;;;;91.28;32.22;;;;;;;7.84;100.00;101947.09;5065550;28;20032;-77
2021/11/12 01:56:24;;;;;;;96.50;33.63;;;;;;;7.79;100.00;101931.50;5065609;28;20074;-77
2021/11/12 01:59:12;;;;;;;90.07;31.70;;;;;;;7.75;100.00;101923.84;5065585;28;20040;-77
2021/11/12 02:01:56;;;;;;;95.25;31.60;;;;;;;7.72;100.00;101922.28;5065691;28;20414;-77
2021/11/12 02:04:24;;;;;;;83.90;32.83;;;;;;;7.75;100.00;101935.38;5067150;28;20036;-77
2021/11/12 02:06:50;;;;;;;95.28;33.38;;;;;;;7.74;100.00;101932.81;5050928;28;20633;-77
2021/11/12 02:09:21;;;;;;;95.77;31.93;;;;;;;7.77;100.00;101940.53;5067581;28;20032;-78
2021/11/12 02:14:48;;;;;;;102.95;35.30;;;;;;;7.69;100.00;101927.84;5068180;28;20052;-77
2021/11/12 02:17:18;;;;;;;108.57;34.60;;;;;;;7.71;100.00;101917.09;5067540;28;20036;-78
2021/11/12 02:20:05;;;;;;;99.38;31.45;;;;;;;7.79;100.00;101942.13;5068193;28;20126;-77
2021/11/12 02:22:37;;;;;;;105.47;33.03;;;;;;;7.78;100.00;101947.56;5067286;28;20055;-77
2021/11/12 02:25:09;;;;;;;120.65;35.53;;;;;;;7.72;100.00;101937.38;5068002;28;20051;-77
2021/11/12 02:27:52;;;;;;;109.35;37.22;;;;;;;7.71;100.00;101949.00;5054190;28;20043;-77
2021/11/12 02:30:27;;;;;;;106.10;35.20;;;;;;;7.74;100.00;101962.91;5070753;28;20051;-77
2021/11/12 02:33:07;;;;;;;121.72;34.45;;;;;;;7.77;100.00;101972.44;5071864;28;20358;-78
2021/11/12 02:35:36;;;;;;;127.47;37.70;;;;;;;7.75;100.00;101974.38;5070473;28;20037;-77
2021/11/12 02:38:04;;;;;;;124.22;38.05;;;;;;;7.80;100.00;101999.66;5070853;28;20028;-77
2021/11/12 02:40:32;;;;;;;126.82;37.42;;;;;;;7.83;100.00;102014.53;5071669;28;20114;-77
2021/11/12 02:42:58;;;;;;;115.47;37.47;;;;;;;7.86;100.00;102019.63;5070475;28;20032;-77
2021/11/12 02:45:24;;;;;;;;;;;;;;;7.85;100.00;102023.25;5054392;28;20131;-77
2021/11/12 02:47:50;;;;;;;108.55;36.45;;;;;;;7.80;100.00;102018.28;5071610;28;20094;-77
2021/11/12 02:50:19;;;;;;;127.72;37.85;;;;;;;7.66;100.00;102002.50;5070448;28;20029;-77
2021/11/12 02:52:49;;;;;;;112.57;36.60;;;;;;;7.80;100.00;102028.06;5071295;28;20032;-77
2021/11/12 02:55:15;;;;;;;120.22;37.45;;;;;;;7.73;100.00;102024.16;5071140;28;20051;-77
2021/11/12 02:57:42;;;;;;;126.35;37.35;;;;;;;7.76;100.00;102026.59;5069696;28;20040;-78
2021/11/12 03:00:10;;;;;;;116.93;36.85;;;;;;;7.85;100.00;102044.53;5051705;28;20064;-77
2021/11/12 03:02:37;;;;;;;122.13;37.25;;;;;;;7.79;100.00;102042.31;5070705;28;20159;-77
2021/11/12 03:05:02;;;;;;;;;;;;;;;7.81;100.00;102049.22;5069928;28;20454;-77
2021/11/12 03:07:28;;;;;;;;;;;;;;;7.82;100.00;102050.09;5054013;28;19913;-77
2021/11/12 03:09:54;;;;;;;128.63;35.92;;;;;;;7.83;100.00;102043.78;5053492;28;19908;-77
2021/11/12 03:12:21;;;;;;;123.82;36.63;;;;;;;7.80;100.00;102052.00;5070998;28;20040;-77
2021/11/12 03:14:48;;;;;;;119.70;34.95;;;;;;;7.81;100.00;102059.00;5053138;28;20040;-77
2021/11/12 03:17:14;;;;;;;131.32;40.28;;;;;;;7.75;100.00;102060.31;5069546;28;20469;-78
2021/11/12 03:19:40;;;;;;;129.80;34.92;;;;;;;7.79;100.00;102077.72;5069472;28;20041;-76
2021/11/12 03:22:09;;;;;;;139.77;39.88;;;;;;;7.75;100.00;102065.63;5069792;28;20059;-77
2021/11/12 03:25:24;;;;;;;123.53;38.30;;;;;;;7.82;100.00;102079.34;5069095;28;20110;-77
2021/11/12 05:10:33;;;;;;;183.30;39.13;;;;;;;7.59;100.00;102188.16;5067149;28;20472;-76
2021/11/12 05:34:54;;;;;;;201.55;41.60;;;;;;;7.61;100.00;102180.94;5066934;28;20036;-76
2021/11/12 05:46:10;;;;;;;261.35;45.88;;;;;;;7.40;100.00;102187.75;5067065;28;20029;-76
2021/11/12 05:51:36;;;;;;;189.43;42.10;;;;;;;7.46;100.00;102223.66;5067057;28;20397;-76
2021/11/12 05:56:49;;;;;;;179.50;38.75;;;;;;;7.45;100.00;102233.44;5067051;28;20179;-76
2021/11/12 05:59:15;;;;;;;;;;;;;;;7.40;100.00;102228.44;5070117;28;20044;-76
2021/11/12 06:01:41;;;;;;;;;;;;;;;7.38;100.00;102235.66;5072350;28;20242;-76
2021/11/12 06:04:07;;;;;;;243.93;42.17;;;;;;;7.36;100.00;102228.75;5070526;28;20522;-76
2021/11/12 06:06:33;;;;;;;217.25;45.22;;;;;;;7.33;100.00;102218.34;5071732;28;20025;-76
2021/11/12 06:08:59;;;;;;;290.17;48.00;;;;;;;7.35;100.00;102213.75;5071709;28;20028;-76
2021/11/12 06:11:27;;;;;;;228.60;45.60;;;;;;;7.24;100.00;102197.72;5070892;28;20131;-76
2021/11/12 06:13:54;;;;;;;246.15;43.25;;;;;;;7.30;100.00;102198.13;5071227;28;20052;-76
2021/11/12 06:16:20;;;;;;;257.95;49.67;;;;;;;7.21;100.00;102189.94;5070566;28;20032;-76
2021/11/12 06:18:46;;;;;;;221.82;43.33;;;;;;;7.25;100.00;102215.34;5070548;28;20035;-76
2021/11/12 06:21:12;;;;;;;202.82;42.53;;;;;;;7.22;100.00;102215.59;5071378;28;20445;-76
2021/11/12 06:23:38;;;;;;;260.75;45.08;;;;;;;7.23;100.00;102203.97;5071131;28;20048;-76
2021/11/12 06:26:05;;;;;;;253.15;48.40;;;;;;;7.21;100.00;102203.22;5070747;28;20036;-76
2021/11/12 06:28:31;;;;;;;266.17;45.60;;;;;;;7.23;100.00;102215.44;5071173;28;20051;-76
2021/11/12 06:30:59;;;;;;;311.58;46.45;;;;;;;7.20;100.00;102213.00;5053630;28;20462;-76
2021/11/12 06:33:25;;;;;;;226.60;45.28;;;;;;;7.26;100.00;102222.34;5070125;28;20481;-77
2021/11/12 06:35:50;;;;;;;255.45;45.33;;;;;;;7.21;100.00;102235.09;5071293;28;20121;-76
2021/11/12 06:38:20;;;;;;;299.83;45.20;;;;;;;7.11;100.00;102230.41;5071083;28;20036;-76
2021/11/12 06:40:45;;;;;;;322.65;50.50;;;;;;;7.08;100.00;102229.78;5070064;28;20029;-76
2021/11/12 06:43:24;;;;;;;312.83;49.35;;;;;;;7.15;100.00;102247.00;5069988;28;20474;-76
2021/11/12 06:51:19;;;;;;;273.90;45.60;;;;;;;7.12;100.00;102241.91;5070939;28;20040;-76
2021/11/12 06:53:45;;;;;;;275.95;45.08;;;;;;;7.11;100.00;102246.34;5069566;28;20028;-75
2021/11/12 06:56:11;;;;;;;292.88;48.22;;;;;;;7.15;100.00;102263.78;5069821;28;20334;-76
2021/11/12 06:58:40;;;;;;;281.52;48.42;;;;;;;7.17;100.00;102264.53;5069767;28;20055;-76
2021/11/12 07:01:06;;;;;;;247.38;45.72;;;;;;;7.31;100.00;102276.06;5069547;28;20107;-76
2021/11/12 07:03:32;;;;;;;312.60;46.50;;;;;;;7.25;100.00;102281.78;5069101;28;20131;-76
2021/11/12 07:05:59;;;;;;;229.82;43.17;;;;;;;7.21;100.00;102274.97;5070578;28;20181;-76
2021/11/12 07:08:24;;;;;;;299.52;51.20;;;;;;;7.16;100.00;102264.63;5069545;28;20044;-76
2021/11/12 07:10:53;;;;;;;291.83;48.38;;;;;;;7.21;100.00;102261.66;5069716;28;20059;-76
2021/11/12 07:13:24;;;;;;;256.30;46.13;;;;;;;7.23;100.00;102265.09;5070098;28;20422;-76
2021/11/12 07:15:52;;;;;;;266.42;47.47;;;;;;;7.14;100.00;102262.09;5070325;28;20075;-76
2021/11/12 07:18:20;;;;;;;238.52;43.28;;;;;;;7.32;100.00;102286.56;5069548;28;20043;-76
2021/11/12 07:20:47;;;;;;;229.27;45.28;;;;;;;7.26;100.00;102280.81;5070152;28;20044;-76
2021/11/12 07:23:17;;;;;;;224.98;44.08;;;;;;;7.25;100.00;102277.31;5070194;28;20024;-76
2021/11/12 07:25:43;;;;;;;204.00;43.08;;;;;;;7.26;100.00;102275.50;5052299;28;20105;-76
2021/11/12 07:28:09;;;;;;;221.23;42.47;;;;;;;7.26;100.00;102268.41;5070273;28;20032;-76
2021/11/12 07:30:38;;;;;;;;;;;;;;;7.28;100.00;102266.50;5069642;28;20078;-76
2021/11/12 07:33:05;;;;;;;200.60;43.20;;;;;;;7.34;100.00;102273.19;5070395;28;19912;-76
2021/11/12 07:35:35;;;;;;;188.45;43.08;;;;;;;7.40;100.00;102267.47;5069968;28;20020;-76
2021/11/12 07:38:09;;;;;;;185.93;44.70;;;;;;;7.33;100.00;102236.97;5069120;28;20431;-76
2021/11/12 07:48:32;;;;;;;162.40;41.92;;;;;;;7.33;100.00;102256.41;5069681;28;20039;-76
2021/11/12 07:50:58;;;;;;;173.75;44.83;;;;;;;7.35;100.00;102243.88;5068880;28;20028;-77
2021/11/12 07:53:25;;;;;;;151.88;46.95;;;;;;;7.35;100.00;102211.09;5051893;28;20043;-76
2021/11/12 07:55:53;;;;;;;152.18;43.55;;;;;;;7.33;100.00;102189.13;5069951;28;20442;-76
2021/11/12 07:58:19;;;;;;;134.50;39.92;;;;;;;7.17;100.00;102141.53;5069023;28;20645;-77
2021/11/12 08:00:45;;;;;;;122.97;36.58;;;;;;;7.19;100.00;102131.63;5070068;28;20637;-77
2021/11/12 08:03:11;;;;;;;110.68;34.78;;;;;;;7.23;100.00;102137.56;5069756;28;20056;-77
2021/11/12 08:05:39;;;;;;;112.10;34.65;;;;;;;7.23;100.00;102126.94;5068499;28;20033;-77
2021/11/12 08:08:08;;;;;;;117.03;33.75;;;;;;;7.19;100.00;102100.59;5068856;28;20090;-77
2021/11/12 08:10:42;;;;;;;107.88;32.33;;;;;;;7.20;100.00;102074.88;5070253;28;20888;-77
2021/11/12 08:13:14;;;;;;;107.43;35.13;;;;;;;7.23;100.00;102079.13;5068716;28;20047;-77
2021/11/12 08:18:37;;;;;;;95.13;30.90;;;;;;;7.36;100.00;102048.09;5068997;28;20131;-77
2021/11/12 08:21:09;;;;;;;81.63;31.35;;;;;;;7.34;100.00;102012.81;5068863;28;20047;-77
2021/11/12 08:34:08;;;;;;;49.97;21.40;;;;;;;7.26;100.00;101834.53;5066256;28;20071;-78
2021/11/12 08:41:47;;;;;;;62.97;24.88;;;;;;;7.02;100.00;101774.31;5066097;28;20040;-77
2021/11/12 08:46:55;;;;;;;58.15;23.05;;;;;;;7.23;100.00;101776.31;5067162;28;20074;-78
2021/11/12 08:49:27;;;;;;;65.05;24.45;;;;;;;7.40;100.00;101778.56;5065890;28;20117;-78
2021/11/12 08:51:53;;;;;;;52.00;21.70;;;;;;;7.36;100.00;101761.16;5065041;28;20108;-78
2021/11/12 08:54:25;;;;;;;50.80;22.02;;;;;;;7.32;100.00;101755.22;5047885;28;20668;-78
2021/11/12 08:56:52;;;;;;;51.60;21.05;;;;;;;7.28;100.00;101734.31;5064810;28;20161;-77
2021/11/12 08:59:39;;;;;;;48.10;20.98;;;;;;;7.33;100.00;101716.25;5065060;28;20469;-76
2021/11/12 09:02:09;;;;;;;52.78;20.95;;;;;;;7.35;100.00;101716.94;5065481;28;20037;-76
2021/11/12 09:04:36;;;;;;;48.60;20.13;;;;;;;7.41;100.00;101711.16;5067090;28;20040;-76
2021/11/12 09:07:02;;;;;;;53.28;19.92;;;;;;;7.19;100.00;101674.81;5066211;28;20036;-76
2021/11/12 09:09:28;;;;;;;46.63;19.08;;;;;;;7.21;100.00;101685.28;5066073;28;20024;-76
2021/11/12 09:11:55;;;;;;;52.05;18.35;;;;;;;7.28;100.00;101690.03;5067445;28;20089;-76
2021/11/12 09:14:24;;;;;;;54.78;21.73;;;;;;;7.32;100.00;101680.84;5065883;28;20441;-76
2021/11/12 09:16:50;;;;;;;52.70;20.63;;;;;;;7.37;100.00;101681.34;5065939;28;20051;-76
2021/11/12 09:19:16;;;;;;;47.13;18.73;;;;;;;7.34;100.00;101675.41;5065768;28;20274;-76
2021/11/12 09:21:44;;;;;;;48.15;16.90;;;;;;;7.43;100.00;101677.38;5065582;28;20438;-76
2021/11/12 09:24:09;;;;;;;45.38;17.95;;;;;;;7.49;100.00;101660.94;5064827;28;20043;-76
2021/11/12 09:26:36;;;;;;;46.60;19.63;;;;;;;7.55;100.00;101664.94;5066890;28;20036;-76
2021/11/12 09:29:06;;;;;;;44.75;17.23;;;;;;;7.61;100.00;101662.63;5066051;28;20060;-76
2021/11/12 09:31:33;;;;;;;49.63;17.25;;;;;;;7.69;100.00;101653.22;5065935;28;20127;-76
2021/11/12 09:34:05;;;;;;;54.90;20.67;;;;;;;7.74;100.00;101640.41;5067263;28;20074;-76
2021/11/12 09:36:31;;;;;;;54.03;20.50;;;;;;;7.61;100.00;101621.94;5071228;28;20059;-76
2021/11/12 09:38:57;;;;;;;45.00;16.23;;;;;;;7.65;100.00;101615.38;5070793;28;20048;-77
2021/11/12 09:41:23;;;;;;;59.47;19.20;;;;;;;7.57;100.00;101616.00;5053152;28;20044;-76
2021/11/12 09:43:50;;;;;;;55.03;20.70;;;;;;;7.65;100.00;101626.00;5069405;28;20583;-76
2021/11/12 09:46:16;;;;;;;61.47;22.58;;;;;;;7.65;100.00;101622.53;5070688;28;20024;-77
2021/11/12 09:48:42;;;;;;;55.58;21.17;;;;;;;7.88;100.00;101656.09;5053048;28;20036;-76
2021/11/12 09:51:09;;;;;;;56.72;18.30;;;;;;;7.68;100.00;101625.78;5069678;28;20612;-76
2021/11/12 09:53:35;;;;;;;50.05;17.67;;;;;;;7.65;100.00;101611.88;5052767;28;20036;-77
2021/11/12 09:56:02;;;;;;;52.75;19.30;;;;;;;7.70;100.00;101604.38;5070737;28;20352;-76
2021/11/12 09:58:30;;;;;;;42.33;15.38;;;;;;;7.80;100.00;101610.69;5070552;28;20090;-76
2021/11/12 10:00:57;;;;;;;46.83;16.58;;;;;;;7.97;100.00;101601.34;5069567;28;20037;-76
2021/11/12 10:03:31;;;;;;;48.90;16.50;;;;;;;7.83;100.00;101583.84;5069145;28;20405;-76
2021/11/12 10:05:56;;;;;;;46.85;19.77;;;;;;;7.87;100.00;101595.91;5069359;28;20341;-76
2021/11/12 10:08:29;;;;;;;46.80;17.67;;;;;;;7.99;100.00;101597.56;5070329;28;20043;-76
2021/11/12 10:11:02;;;;;;;47.65;16.45;;;;;;;8.03;100.00;101595.53;5052776;28;20032;-76
2021/11/12 10:13:39;;;;;;;42.53;14.48;;;;;;;7.94;100.00;101567.03;5052556;28;20429;-76
2021/11/12 10:19:04;;;;;;;43.92;14.57;;;;;;;8.05;100.00;101566.97;5070147;28;20442;-76
2021/11/12 10:21:35;;;;;;;32.92;15.07;;;;;;;8.21;100.00;101571.88;5069217;28;20055;-76
2021/11/12 10:24:04;;;;;;;39.53;14.85;;;;;;;8.26;100.00;101564.34;5069601;28;20087;-76
2021/11/12 10:26:31;;;;;;;35.90;14.23;;;;;;;8.25;100.00;101574.16;5068951;28;20508;-76
2021/11/12 10:29:12;;;;;;;44.00;16.10;;;;;;;8.25;100.00;101549.38;5068855;28;20028;-77
2021/11/12 10:31:47;;;;;;;42.45;16.13;;;;;;;8.39;100.00;101557.03;5069793;28;20032;-76
2021/11/12 10:34:19;;;;;;;41.30;14.98;;;;;;;8.60;100.00;101554.41;5069519;28;20048;-76
2021/11/12 10:36:55;;;;;;;31.48;12.98;;;;;;;8.86;100.00;101557.53;5068964;28;20040;-77
2021/11/12 10:39:26;;;;;;;34.90;13.07;;;;;;;8.86;100.00;101544.19;5069912;28;20029;-76
2021/11/12 10:41:51;;;;;;;32.20;12.88;;;;;;;8.88;100.00;101533.44;5052288;28;20036;-76
2021/11/12 10:44:17;;;;;;;39.45;15.63;;;;;;;9.04;100.00;101515.16;5051842;28;20040;-76
2021/11/12 10:46:44;;;;;;;29.60;13.43;;;;;;;9.27;100.00;101505.16;5051005;28;20055;-76
2021/11/12 10:49:31;;;;;;;31.60;13.73;;;;;;;9.44;100.00;101511.63;5069447;28;20074;-76
2021/11/12 10:52:05;;;;;;;25.73;11.55;;;;;;;9.52;99.18;101492.28;5068497;28;20043;-76
2021/11/12 10:54:39;;;;;;;30.85;11.93;;;;;;;9.13;99.20;101483.34;5068208;28;20424;-76
2021/11/12 10:57:05;;;;;;;29.90;13.43;;;;;;;9.16;99.39;101491.91;5068173;28;20040;-76
2021/11/12 10:59:30;;;;;;;31.15;11.43;;;;;;;8.86;99.66;101476.78;5069395;28;20025;-76
2021/11/12 11:01:56;;;;;;;28.08;11.38;;;;;;;9.14;99.93;101493.88;5068025;28;20036;-76
2021/11/12 11:04:22;;;;;;;28.07;13.43;;;;;;;9.13;99.50;101486.88;5068329;28;20461;-76
2021/11/12 11:06:51;;;;;;;27.45;10.98;;;;;;;8.79;99.72;101457.00;5068550;28;20047;-76
2021/11/12 11:09:19;;;;;;;26.73;12.30;;;;;;;8.70;100.00;101463.97;5071197;28;20041;-76
2021/11/12 11:11:47;;;;;;;28.75;12.60;;;;;;;8.60;100.00;101476.41;5067925;28;20044;-76
2021/11/12 11:14:30;;;;;;;31.48;12.75;;;;;;;8.66;100.00;101481.16;5067718;28;20085;-76
2021/11/12 11:17:16;;;;;;;32.83;12.95;;;;;;;8.93;100.00;101485.09;5067870;28;20496;-77
2021/11/12 11:19:42;;;;;;;35.50;13.82;;;;;;;8.79;100.00;101468.50;5067906;28;20343;-76
2021/11/12 11:22:11;;;;;;;32.63;13.98;;;;;;;8.82;100.00;101465.56;5051389;28;20123;-76
2021/11/12 11:24:37;;;;;;;35.83;13.32;;;;;;;8.82;100.00;101468.22;5067560;28;20441;-76
2021/11/12 11:27:04;;;;;;;34.22;13.95;;;;;;;8.86;100.00;101468.81;5067783;28;20031;-76
2021/11/12 11:29:31;;;;;;;39.63;15.90;;;;;;;8.64;100.00;101437.91;5067921;28;20469;-76
2021/11/12 11:31:58;;;;;;;37.80;14.77;;;;;;;8.72;100.00;101453.19;5068656;28;20106;-77
2021/11/12 11:34:25;;;;;;;32.88;13.73;;;;;;;8.76;100.00;101459.94;5067477;28;20037;-77
2021/11/12 11:36:55;;;;;;;36.65;14.93;;;;;;;8.81;100.00;101453.22;5067600;28;20027;-76
2021/11/12 11:39:22;;;;;;;35.28;14.00;;;;;;;9.02;100.00;101463.00;5067462;28;20044;-76
2021/11/12 11:41:51;;;;;;;38.17;13.30;;;;;;;8.96;100.00;101434.22;5067706;28;20046;-76
2021/11/12 11:44:20;;;;;;;26.60;13.07;;;;;;;8.87;100.00;101417.22;5067290;28;20525;-76
2021/11/12 11:46:51;;;;;;;33.95;13.07;;;;;;;8.95;100.00;101429.88;5068786;28;20154;-76
2021/11/12 11:49:20;;;;;;;33.92;14.02;;;;;;;9.07;100.00;101421.63;5050801;28;20034;-76
2021/11/12 11:51:58;;;;;;;36.38;15.48;;;;;;;8.80;100.00;101400.09;5068358;28;20123;-76
2021/11/12 11:54:26;;;;;;;33.85;14.65;;;;;;;9.14;100.00;101424.59;5067988;28;20032;-76
2021/11/12 11:57:10;;;;;;;31.63;14.25;;;;;;;8.92;100.00;101383.06;5050380;28;20028;-76
2021/11/12 11:59:36;;;;;;;43.40;20.10;;;;;;;9.06;100.00;101403.13;5067971;28;20035;-76
2021/11/12 12:02:15;;;;;;;35.90;14.85;;;;;;;9.02;100.00;101405.22;5050496;28;20029;-76
2021/11/12 12:04:46;;;;;;;47.80;28.55;;;;;;;9.03;100.00;101398.06;5067814;28;20032;-76
2021/11/12 12:07:20;;;;;;;29.52;14.63;;;;;;;9.00;100.00;101387.69;5068069;28;20139;-76
2021/11/12 12:09:54;;;;;;;65.72;29.60;;;;;;;9.01;100.00;101384.03;5067071;28;20414;-76
2021/11/12 12:12:29;;;;;;;37.20;14.82;;;;;;;9.01;100.00;101392.03;5050473;28;20366;-76
2021/11/12 12:15:20;;;;;;;40.95;16.63;;;;;;;8.88;100.00;101387.81;5066562;28;20113;-76
2021/11/12 12:17:49;;;;;;;62.67;30.50;;;;;;;8.74;100.00;101374.88;5066822;28;20043;-76
2021/11/12 13:26:09;;;;;;;39.70;18.85;;;;;;;8.66;100.00;101268.22;5066620;28;20043;-76
2021/11/12 13:28:44;;;;;;;25.20;13.45;;;;;;;8.57;100.00;101269.91;5058269;28;20063;-76
2021/11/12 13:31:12;;;;;;;48.85;24.10;;;;;;;8.58;100.00;101270.72;5066702;28;20041;-76
2021/11/12 13:33:58;;;;;;;24.90;12.27;;;;;;;8.56;100.00;101262.03;5066765;28;20043;-76
2021/11/12 13:36:35;;;;;;;28.65;12.60;;;;;;;8.52;100.00;101269.47;5066734;28;20071;-76
2021/11/12 13:39:01;;;;;;;24.05;11.85;;;;;;;8.50;100.00;101265.22;5066918;28;20028;-76
2021/11/12 13:41:41;;;;;;;26.67;12.15;;;;;;;8.49;100.00;101260.91;5067610;28;20469;-76
2021/11/12 13:44:19;;;;;;;41.35;18.45;;;;;;;8.47;100.00;101269.00;5049800;28;20041;-76
2021/11/12 13:46:52;;;;;;;23.27;11.50;;;;;;;8.36;100.00;101254.00;5067634;28;20036;-76
2021/11/12 13:49:27;;;;;;;64.25;26.85;;;;;;;8.51;100.00;101254.47;5067724;28;20450;-76
2021/11/12 13:51:59;;;;;;;21.10;10.25;;;;;;;8.42;100.00;101250.78;5066929;28;20056;-75
2021/11/12 13:54:25;;;;;;;19.02;9.70;;;;;;;8.44;100.00;101259.50;5067869;28;20385;-75
2021/11/12 13:56:50;;;;;;;21.27;9.70;;;;;;;8.42;100.00;101245.47;5066975;28;20025;-76
2021/11/12 13:59:16;;;;;;;20.25;9.32;;;;;;;8.45;100.00;101255.00;5067713;28;20032;-76
2021/11/12 14:01:42;;;;;;;18.95;9.38;;;;;;;8.40;100.00;101244.75;5050045;28;20418;-75
2021/11/12 14:04:26;;;;;;;23.17;12.20;;;;;;;8.46;100.00;101254.03;5067543;28;20454;-76
2021/11/12 14:06:53;;;;;;;17.17;9.73;;;;;;;8.39;100.00;101255.53;5066656;28;20103;-76
2021/11/12 14:09:25;;;;;;;29.60;15.98;;;;;;;8.48;100.00;101248.59;5066688;28;20849;-76
2021/11/12 14:12:11;;;;;;;16.55;10.00;;;;;;;8.36;100.00;101231.88;5066659;28;20067;-75
2021/11/12 14:14:38;;;;;;;21.77;9.60;;;;;;;8.35;100.00;101238.97;5066561;28;20036;-75
2021/11/12 14:17:29;;;;;;;18.42;9.75;;;;;;;8.44;100.00;101246.19;5049946;28;20047;-75
2021/11/12 14:20:25;;;;;;;16.58;9.85;;;;;;;8.32;100.00;101236.59;5067815;28;20526;-76
2021/11/12 14:23:04;;;;;;;18.00;10.15;;;;;;;8.35;100.00;101241.66;5070167;28;20040;-76
2021/11/12 14:34:05;;;;;;;27.60;15.07;;;;;;;8.19;100.00;101223.56;5041778;28;20044;-75
2021/11/12 14:36:36;;;;;;;32.55;15.60;;;;;;;8.24;100.00;101218.66;5068563;28;20044;-76
2021/11/12 14:39:16;;;;;;;33.95;17.92;;;;;;;8.20;100.00;101224.41;5068434;28;20043;-75
2021/11/12 14:47:57;;;;;;;33.45;16.83;;;;;;;8.29;100.00;101223.59;5069296;28;20443;-75
2021/11/12 14:50:37;;;;;;;36.25;19.65;;;;;;;8.04;100.00;101212.44;5068043;28;20376;-76
2021/11/12 14:53:06;;;;;;;37.45;19.23;;;;;;;8.01;100.00;101204.72;5051398;28;20427;-76
2021/11/12 14:55:34;;;;;;;34.42;16.15;;;;;;;7.98;100.00;101205.00;5069184;28;20043;-76
2021/11/12 14:57:59;;;;;;;40.22;17.95;;;;;;;7.96;100.00;101195.47;5068381;28;20024;-75
2021/11/12 15:00:27;;;;;;;59.03;31.83;;;;;;;7.98;100.00;101189.06;5068127;28;20101;-76
2021/11/12 15:02:52;;;;;;;39.08;18.90;;;;;;;7.92;100.00;101183.44;5051444;28;20455;-77
2021/11/12 15:05:19;;;;;;;39.95;19.92;;;;;;;8.02;100.00;101185.13;5068140;28;20143;-76
2021/11/12 15:07:50;;;;;;;31.60;18.05;;;;;;;7.91;100.00;101155.97;5069326;28;20381;-75
2021/11/12 15:10:23;;;;;;;37.35;17.73;;;;;;;7.84;100.00;101149.53;5068307;28;20121;-75
2021/11/12 15:12:51;;;;;;;28.55;15.32;;;;;;;7.96;100.00;101161.75;5068285;28;20119;-75
2021/11/12 15:15:17;;;;;;;32.20;15.65;;;;;;;7.84;100.00;101144.22;5067575;28;20118;-75
2021/11/12 15:17:43;;;;;;;28.15;15.88;;;;;;;7.76;100.00;101128.09;5068018;28;20030;-75
2021/11/12 15:20:09;;;;;;;25.20;13.13;;;;;;;7.80;100.00;101132.19;5068709;28;20891;-75
2021/11/12 15:22:48;;;;;;;20.70;10.45;;;;;;;7.89;100.00;101141.13;5051249;28;20044;-75
2021/11/12 15:28:10;;;;;;;17.08;8.65;;;;;;;7.66;100.00;101125.41;5068602;28;20127;-76
2021/11/12 15:30:40;;;;;;;14.52;6.82;;;;;;;7.63;100.00;101111.53;5068761;28;20038;-75
2021/11/12 15:33:08;;;;;;;15.85;6.57;;;;;;;7.60;100.00;101107.34;5068302;28;20036;-75
2021/11/12 15:35:34;;;;;;;8.38;4.90;;;;;;;7.54;99.88;101100.75;5050932;28;20046;-75
2021/11/12 15:38:06;;;;;;;8.85;5.15;;;;;;;7.55;99.21;101098.94;5067651;28;20095;-76
2021/11/12 15:40:41;;;;;;;7.25;4.18;;;;;;;7.53;98.89;101084.94;5067176;28;20050;-75
2021/11/12 15:43:25;;;;;;;9.75;4.40;;;;;;;7.50;97.63;101078.09;5067409;28;20032;-76
2021/11/12 15:45:57;;;;;;;7.00;4.35;;;;;;;7.49;97.08;101084.38;5067396;28;20079;-75
2021/11/12 15:48:25;;;;;;;8.52;4.80;;;;;;;7.41;96.68;101076.22;5067410;28;20151;-75
2021/11/12 16:12:20;;;;;;;7.28;5.28;;;;;;;7.19;95.33;101008.22;5066422;28;20051;-76
2021/11/12 16:15:14;;;;;;;7.35;5.88;;;;;;;7.19;94.68;100989.63;5066819;28;20127;-75
2021/11/12 16:25:23;;;;;;;8.77;6.45;;;;;;;6.94;93.73;100986.44;5066899;28;20461;-76
2021/11/12 16:27:51;;;;;;;13.13;8.13;;;;;;;6.92;94.05;100982.25;5067603;28;20128;-75
2021/11/12 16:30:22;;;;;;;8.73;5.95;;;;;;;6.90;94.54;100994.81;5050163;28;20028;-76
2021/11/12 16:32:55;;;;;;;9.18;5.82;;;;;;;6.89;94.62;100995.78;5067586;28;20097;-75
2021/11/12 16:35:24;;;;;;;33.40;19.85;;;;;;;6.80;95.04;101002.72;5066458;28;20040;-75
2021/11/12 16:37:55;;;;;;;20.90;9.05;;;;;;;6.84;95.29;101012.13;5066383;28;20036;-76
2021/11/12 16:40:28;;;;;;;9.30;6.63;;;;;;;6.82;95.62;101007.91;5066247;28;20082;-75
2021/11/12 16:45:54;;;;;;;13.07;6.65;;;;;;;6.71;96.46;101003.50;5066255;28;20087;-76